Impacts TAF Board
For situational awareness. Not to be used for flight planning purposes.
IDs:

KBOS - Boston/Logan Intl, MA, US

Issued at 2059 UTC 18 Nov 2018
Updated at 2251 UTC 18 Nov 2018
Potential Impact None Slight Moderate High
Time<<19/11Z 19/12Z 19/13Z 19/14Z 19/15Z 19/16Z 19/17Z 19/18Z 19/19Z 19/20Z 19/21Z 19/22Z 19/23Z>>
Type PRVL PRVL PRVL PRVL PRVL PRVL PRVL PRVL PRVL PRVL PRVL PRVL PRVL
VIS 5 5 3 3 3 3 3 3 >6 >6 >6 >6 >6
CIG 20 20 15 15 15 15 15 15 15 15 20 20 20
Cover OVC OVC OVC OVC OVC OVC OVC OVC OVC OVC OVC OVC OVC
FltCat MVFR MVFR MVFR MVFR MVFR MVFR MVFR MVFR MVFR MVFR MVFR MVFR MVFR
WX -RA BR -RA BR -RA BR -RA BR -RA BR -RA BR -RA BR -RA BR -RA -RA VCSH VCSH VCSH
WDir 180 180 200 200 200 200 200 200 300 300 310 310 310
WSpd 6 6 6 6 6 6 6 6 6 6 6 6 6
WGst -- -- -- -- -- -- -- -- -- -- -- -- --
Raw TAF
KBOS 182059Z 1821/1924 15006KT P6SM BKN040
  FM190600 20006KT 6SM -RASN BR OVC030
  FM191000 18006KT 5SM -RA BR OVC020
  FM191300 20006KT 3SM -RA BR OVC015
  FM191900 30006KT P6SM -RA OVC015
  FM192100 31006KT P6SM VCSH OVC020


METAR Board
Radar Display
Forecast Discussion
For situational awareness. Not to be used for flight planning purposes.